• Join FlightAware (Why Join?)
  • Login
  • US Flag 
07:54AM EDT


 

Airport Tracker/Info


-or-


 

Live Flight TrackerFlight Track Log ✈ AAL963 ✈ 30-Aug-2013 ✈ KDFW - SBGR / GRU

Flight Track Log - Related Links

Times and Time Zones

All times are in EDT time to prevent confusion due to time zone crossing. See the AAL963 flight status page for this flight to view local times or setup timezone preferences in your user account.

Time Position Orientation Groundspeed Altitude Reporting Facility
EDT Latitude Longitude Course Direction KTS MPH feet Rate Location/Type
09:41PM 32.8570 -97.0550 191° South 197 227 2,200  Level FlightAware
09:41PM 32.8410 -97.0590 192° South 211 243 2,400 840 Climbing FlightAware
09:42PM 32.8220 -97.0650 195° South 230 265 2,700 600 Climbing FlightAware
09:42PM 32.8170 -97.0660 190° South 234 269 2,800 600 Climbing FlightAware
09:42PM 32.7990 -97.0710 193° South 246 283 3,100 1,020 Climbing FlightAware
09:43PM 32.7750 -97.0770 192° South 266 306 3,500 1,560 Climbing FlightAware
09:43PM 32.7480 -97.0820 189° South 275 316 4,200 3,180 Climbing FlightAware
09:43PM 32.7030 -97.0680 165° South 275 316 5,700 3,300 Climbing FlightAware
09:44PM 32.6810 -97.0540 152° Southeast 278 320 6,400 2,220 Climbing FlightAware
09:44PM 32.6660 -97.0450 153° Southeast 280 322 6,900 2,160 Climbing FlightAware
09:44PM 32.6380 -97.0280 153° Southeast 287 330 7,700 2,160 Climbing FlightAware
09:45PM 32.6140 -97.0140 154° Southeast 290 334 8,500 2,160 Climbing FlightAware
09:45PM 32.5840 -96.9950 152° Southeast 300 345 9,300 1,980 Climbing FlightAware
09:45PM 32.5620 -96.9820 154° Southeast 305 351 9,900 1,980 Climbing FlightAware
09:46PM 32.5170 -96.9550 153° Southeast 310 357 11,100 1,980 Climbing FlightAware
09:46PM 32.4760 -96.9300 153° Southeast 316 364 12,200 1,860 Climbing FlightAware
09:47PM 32.4240 -96.9010 155° Southeast 330 380 13,300 1,320 Climbing FlightAware
09:48PM 32.3750 -96.8710 153° Southeast 356 410 13,800 900 Climbing FlightAware
09:48PM 32.3200 -96.8380 153° Southeast 382 440 14,400 1,260 Climbing FlightAware
09:49PM 32.2640 -96.8080 156° South 395 455 15,300 1,200 Climbing FlightAware
09:49PM 32.2050 -96.7850 162° South 418 481 15,800 1,440 Climbing FlightAware
09:50PM 32.1272 -96.7565 163° South 424 488 17,100 1,620 Climbing FlightAware ADS-B
09:51PM 32.0680 -96.7340 162° South 433 498 17,800 1,500 Climbing FlightAware
09:51PM 32.0512 -96.7270 161° South 431 496 18,100 1,620 Climbing FlightAware ADS-B
09:51PM 31.9838 -96.7010 162° South 442 509 19,000 1,500 Climbing FlightAware ADS-B
09:52PM 31.9229 -96.6779 162° South 447 514 19,800 1,620 Climbing FlightAware ADS-B
09:52PM 31.8637 -96.6553 162° South 448 516 20,700 1,560 Climbing FlightAware ADS-B
09:53PM 31.8032 -96.6304 161° South 455 524 21,400 1,320 Climbing FlightAware ADS-B
09:55PM 31.4817 -96.4994 161° South 483 556 24,900 1,260 Climbing FlightAware ADS-B
09:56PM 31.4152 -96.4748 162° South 490 564 25,400 1,140 Climbing FlightAware ADS-B
09:56PM 31.3466 -96.4496 163° South 494 568 26,100 1,260 Climbing FlightAware ADS-B
09:57PM 31.3024 -96.4327 162° South 498 573 26,500 1,380 Climbing FlightAware ADS-B
09:57PM 31.2806 -96.4196 150° Southeast 499 574 26,800 1,320 Climbing FlightAware ADS-B
09:57PM 31.2657 -96.4071 144° Southeast 497 572 26,900 1,260 Climbing FlightAware ADS-B
09:58PM 31.1433 -96.2485 127° Southeast 501 577 28,700 1,260 Climbing FlightAware ADS-B
09:59PM 31.1004 -96.1797 126° Southeast 504 580 29,300 1,140 Climbing FlightAware ADS-B
09:59PM 31.0574 -96.1120 127° Southeast 506 582 29,900 1,440 Climbing FlightAware ADS-B
10:00PM 31.0145 -96.0451 127° Southeast 502 578 30,800 1,080 Climbing FlightAware ADS-B
10:01PM 30.9726 -95.9799 127° Southeast 501 577 31,000 60 Climbing FlightAware ADS-B
10:03PM 30.7620 -95.6556 127° Southeast 501 577 31,000  Level FlightAware ADS-B
10:04PM 30.6777 -95.5264 127° Southeast 499 574 31,000  Level FlightAware ADS-B
10:05PM 30.6348 -95.4608 127° Southeast 500 575 31,000  Level FlightAware ADS-B
10:05PM 30.5922 -95.3957 127° Southeast 500 575 31,000  Level FlightAware ADS-B
10:06PM 30.5498 -95.3312 127° Southeast 499 574 31,000  Level FlightAware ADS-B
10:08PM 30.3369 -95.0083 127° Southeast 497 572 31,000  Level FlightAware ADS-B
10:09PM 30.2520 -94.8802 128° Southeast 496 571 31,000  Level FlightAware ADS-B
10:10PM 30.1675 -94.7533 128° Southeast 495 570 31,000  Level FlightAware ADS-B
10:10PM 30.1411 -94.7141 128° Southeast 494 568 31,000  Level FlightAware ADS-B
10:11PM 30.1108 -94.6745 131° Southeast 495 570 31,000  Level FlightAware ADS-B
10:11PM 30.0743 -94.6335 136° Southeast 497 572 31,000  Level FlightAware ADS-B
10:12PM 30.0214 -94.5821 140° Southeast 497 572 31,000  Level FlightAware ADS-B
10:12PM 29.9676 -94.5310 141° Southeast 497 572 31,000  Level FlightAware ADS-B
10:14PM 29.8067 -94.3781 140° Southeast 495 570 31,000  Level FlightAware ADS-B
10:14PM 29.7531 -94.3270 140° Southeast 495 570 31,000  Level FlightAware ADS-B
10:15PM 29.6999 -94.2765 140° Southeast 495 570 31,000  Level FlightAware ADS-B
10:15PM 29.6462 -94.2256 141° Southeast 496 571 31,000  Level FlightAware ADS-B
10:16PM 29.5397 -94.1247 140° Southeast 495 570 31,000  Level FlightAware ADS-B
10:17PM 29.4329 -94.0234 140° Southeast 496 571 31,000  Level FlightAware ADS-B
10:18PM 29.3777 -93.9712 141° Southeast 496 571 31,000  Level FlightAware ADS-B
10:18PM 29.3214 -93.9182 141° Southeast 497 572 31,000  Level FlightAware ADS-B
10:19PM 29.2566 -93.8572 141° Southeast 497 572 31,000  Level FlightAware ADS-B
10:19PM 29.2022 -93.8060 141° Southeast 496 571 31,000  Level FlightAware ADS-B
10:20PM 29.1318 -93.7399 141° Southeast 496 571 31,000  Level FlightAware ADS-B
10:21PM 29.0782 -93.6896 141° Southeast 497 572 31,000  Level FlightAware ADS-B
10:21PM 29.0221 -93.6371 141° Southeast 496 571 31,000  Level FlightAware ADS-B
10:22PM 29.0210 -93.6260 96° East 494 568 31,000  Level FlightAware
10:23PM 28.9660 -93.5740 140° Southeast 494 568 31,000  Level FlightAware
10:23PM 28.9110 -93.5210 140° Southeast 494 568 31,000  Level FlightAware
10:24PM 28.8570 -93.4700 140° Southeast 494 568 31,000  Level FlightAware
10:24PM 28.8040 -93.4180 139° Southeast 494 568 31,000  Level FlightAware
10:25PM 28.7500 -93.3670 140° Southeast 494 568 31,000  Level FlightAware
10:26PM 28.6970 -93.3160 140° Southeast 494 568 31,000  Level FlightAware
10:26PM 28.6440 -93.2660 140° Southeast 494 568 31,000  Level FlightAware
10:27PM 28.3992 -93.0583 140° Southeast 500 575 31,000 -60 Level Houston Center
10:28PM 28.2919 -92.9589 141° Southeast 499 574 30,900  Descending Houston Center
10:29PM 28.1842 -92.8597 141° Southeast 499 574 31,000  Climbing Houston Center
10:30PM 28.0761 -92.7619 141° Southeast 497 572 30,900  Descending Houston Center
10:32PM 27.9367 -92.6009 145° Southeast  Level Estimated
10:39PM 27.1875 -91.9506 143° Southeast  Level FlightAware Approximate
10:39PM 27.0472 -91.8453 143° Southeast 502 578 31,000  Level FlightAware ADS-B
10:42PM 26.8042 -91.6484 144° Southeast  Level FlightAware Approximate
10:43PM 26.6953 -91.5605 144° Southeast  Level FlightAware Approximate
10:44PM 26.5863 -91.4728 144° Southeast  Level FlightAware Approximate
10:45PM 26.4773 -91.3853 144° Southeast  Level FlightAware Approximate
10:46PM 26.3682 -91.2979 144° Southeast  Level FlightAware Approximate
10:47PM 26.2573 -91.2138 146° Southeast  Level FlightAware Approximate
10:48PM 26.1469 -91.1286 145° Southeast  Level FlightAware Approximate
10:49PM 26.0372 -91.0425 145° Southeast  Level FlightAware Approximate
10:50PM 25.9273 -90.9567 145° Southeast  Level FlightAware Approximate
10:51PM 25.8175 -90.8709 145° Southeast  Level FlightAware Approximate
10:52PM 25.7079 -90.7849 145° Southeast  Level FlightAware Approximate
10:53PM 25.5982 -90.6991 145° Southeast  Level FlightAware Approximate
10:54PM 25.4885 -90.6134 145° Southeast  Level FlightAware Approximate
10:55PM 25.3787 -90.5278 145° Southeast  Level FlightAware Approximate
10:56PM 25.2689 -90.4424 145° Southeast  Level FlightAware Approximate
10:57PM 25.1590 -90.3572 145° Southeast  Level FlightAware Approximate
10:58PM 25.0491 -90.2721 145° Southeast  Level FlightAware Approximate
10:59PM 24.9391 -90.1872 145° Southeast  Level FlightAware Approximate
11:00PM 24.8291 -90.1024 145° Southeast  Level FlightAware Approximate
11:01PM 24.7190 -90.0178 145° Southeast  Level FlightAware Approximate
11:02PM 24.6089 -89.9333 145° Southeast  Level FlightAware Approximate
11:03PM 24.4988 -89.8488 138° Southeast  Level FlightAware Approximate
11:04PM 24.3879 -89.7634 146° Southeast  Level FlightAware Approximate
11:05PM 24.2751 -89.6808 146° Southeast  Level FlightAware Approximate
11:06PM 24.1621 -89.5984 146° Southeast  Level FlightAware Approximate
11:07PM 24.0492 -89.5160 145° Southeast  Level FlightAware Approximate
11:08PM 23.9377 -89.4313 145° Southeast  Level FlightAware Approximate
11:09PM 23.8263 -89.3468 145° Southeast  Level FlightAware Approximate
11:10PM 23.7148 -89.2623 145° Southeast  Level FlightAware Approximate
11:11PM 23.6032 -89.1781 145° Southeast  Level FlightAware Approximate
11:12PM 23.4916 -89.0939 145° Southeast  Level FlightAware Approximate
11:13PM 23.3799 -89.0099 145° Southeast  Level FlightAware Approximate
11:14PM 23.2682 -88.9261 145° Southeast  Level FlightAware Approximate
11:15PM 23.1566 -88.8423 145° Southeast  Level FlightAware Approximate
11:15PM 22.8890 -88.6430 145° Southeast 510 587 31,000  Level FlightAware
11:16PM 23.0454 -88.7577 145° Southeast  Level FlightAware Approximate
11:16PM 22.8230 -88.5960 147° Southeast 511 588 31,000  Level FlightAware
11:17PM 22.7450 -88.5370 145° Southeast 511 588 31,000  Level FlightAware
11:17PM 22.6860 -88.4950 147° Southeast 510 587 31,000  Level FlightAware
11:18PM 22.5970 -88.4260 144° Southeast 510 587 31,000  Level FlightAware
11:19PM 22.5220 -88.3530 138° Southeast 512 589 31,000  Level FlightAware
11:19PM 22.4650 -88.2950 137° Southeast 512 589 31,000  Level FlightAware
11:20PM 22.4100 -88.2390 137° Southeast 512 589 31,000 60 Level FlightAware
11:20PM 22.3550 -88.1830 137° Southeast 515 593 31,100 600 Climbing FlightAware
11:21PM 22.2980 -88.1240 136° Southeast 516 594 31,700 1,020 Climbing FlightAware
11:22PM 22.2270 -88.0530 137° Southeast 519 597 32,400 1,020 Climbing FlightAware
11:22PM 22.1700 -87.9950 137° Southeast 517 595 33,000 480 Climbing FlightAware
11:23PM 22.1040 -87.9290 137° Southeast 514 592 33,000  Level FlightAware
11:23PM 22.0500 -87.8740 137° Southeast 514 592 33,000  Level FlightAware
11:24PM 21.9770 -87.8010 137° Southeast 514 592 33,000  Level FlightAware
11:25PM 21.9090 -87.7320 137° Southeast 513 590 33,000  Level FlightAware
11:25PM 21.8370 -87.6600 137° Southeast 513 590 33,000  Level FlightAware
11:26PM 21.7790 -87.6030 138° Southeast 513 590 33,000  Level FlightAware
11:26PM 21.7150 -87.5390 137° Southeast 514 592 33,000  Level FlightAware
11:27PM 21.6590 -87.4830 137° Southeast 514 592 33,000  Level FlightAware
11:28PM 21.5930 -87.4180 138° Southeast 514 592 33,000  Level FlightAware
11:28PM 21.5240 -87.3500 137° Southeast 514 592 33,000  Level FlightAware
11:29PM 21.4650 -87.2920 138° Southeast 515 593 33,000  Level FlightAware
11:29PM 21.3970 -87.2250 137° Southeast 517 595 33,000  Level FlightAware
11:30PM 21.3360 -87.1650 137° Southeast 518 596 33,000  Level FlightAware
11:31PM 21.2800 -87.1090 137° Southeast 519 597 33,000  Level FlightAware
11:31PM 21.2150 -87.0450 137° Southeast 519 597 33,000  Level FlightAware
11:32PM 21.1580 -86.9890 137° Southeast 521 600 33,000  Level FlightAware
11:32PM 21.0980 -86.9300 137° Southeast 522 601 33,000  Level FlightAware
11:33PM 21.0260 -86.8600 138° Southeast 523 602 33,000  Level FlightAware
11:33PM 20.9660 -86.8020 138° Southeast 523 602 33,000  Level FlightAware
11:34PM 20.8890 -86.7270 138° Southeast 523 602 33,000  Level FlightAware
11:35PM 20.8260 -86.6650 137° Southeast 523 602 33,000  Level FlightAware
11:35PM 20.7630 -86.6050 138° Southeast 523 602 33,000  Level FlightAware
11:36PM 20.6990 -86.5430 138° Southeast 523 602 33,000  Level FlightAware
11:36PM 20.6390 -86.4840 137° Southeast 525 604 33,000  Level FlightAware
11:37PM 20.5720 -86.4200 138° Southeast 527 606 33,000  Level FlightAware
11:38PM 20.5180 -86.3680 138° Southeast 527 606 33,000  Level FlightAware
11:38PM 20.4590 -86.3090 137° Southeast 527 606 33,000  Level FlightAware
11:39PM 20.4030 -86.2530 137° Southeast 527 606 33,000  Level FlightAware
11:40PM 20.3040 -86.1600 139° Southeast 528 608 33,000  Level FlightAware
11:41PM 20.1760 -86.0390 138° Southeast 521 600 33,000  Level FlightAware
11:41PM 20.1230 -85.9880 138° Southeast 518 596 33,000  Level FlightAware
11:42PM 20.0560 -85.9230 138° Southeast 516 594 33,000  Level FlightAware
11:42PM 19.9900 -85.8610 139° Southeast 516 594 33,000  Level FlightAware
11:43PM 19.9290 -85.8030 138° Southeast 515 593 33,000  Level FlightAware
11:44PM 19.8660 -85.7440 139° Southeast 513 590 33,000  Level FlightAware
11:44PM 19.8020 -85.6840 139° Southeast 509 586 33,000  Level FlightAware
11:45PM 19.7460 -85.6310 138° Southeast 508 585 33,000  Level FlightAware
11:46PM 19.6580 -85.5480 138° Southeast 507 583 33,000  Level FlightAware
11:47PM 19.5620 -85.4580 139° Southeast 507 583 33,000  Level FlightAware
11:47PM 19.4890 -85.3900 139° Southeast 509 586 33,000  Level FlightAware
11:48PM 19.4210 -85.3260 138° Southeast 510 587 33,000  Level FlightAware
11:49PM 19.3490 -85.2580 138° Southeast 512 589 33,000  Level FlightAware
11:49PM 19.2930 -85.2050 138° Southeast 512 589 33,000  Level FlightAware
11:50PM 19.2380 -85.1520 138° Southeast 512 589 33,000  Level FlightAware
11:50PM 19.1840 -85.1010 138° Southeast 512 589 33,000  Level FlightAware
11:51PM 19.1290 -85.0480 138° Southeast 512 589 33,000  Level FlightAware
11:52PM 19.0750 -84.9970 138° Southeast 512 589 33,000  Level FlightAware
11:52PM 19.0210 -84.9460 138° Southeast 512 589 33,000  Level FlightAware
11:53PM 18.9670 -84.8940 138° Southeast 512 589 33,000  Level FlightAware
11:53PM 18.9130 -84.8430 138° Southeast 512 589 33,000  Level FlightAware
11:54PM 18.8590 -84.7920 138° Southeast 512 589 33,000  Level FlightAware
11:55PM 18.8040 -84.7390 138° Southeast 512 589 33,000  Level FlightAware
11:55PM 18.7470 -84.6850 138° Southeast 512 589 33,000  Level FlightAware
11:56PM 18.6930 -84.6340 138° Southeast 512 589 33,000  Level FlightAware
11:57PM 18.6380 -84.5810 138° Southeast 512 589 33,000  Level FlightAware
11:57PM 18.5840 -84.5300 138° Southeast 512 589 33,000  Level FlightAware
11:58PM 18.5300 -84.4790 138° Southeast 512 589 33,000  Level FlightAware
12:00AM 18.3860 -84.2779 125° Southeast  Level FlightAware Approximate
12:01AM 18.3088 -84.1603 125° Southeast  Level FlightAware Approximate
12:02AM 18.2316 -84.0429 125° Southeast  Level FlightAware Approximate
12:03AM 18.1543 -83.9256 125° Southeast  Level FlightAware Approximate
12:04AM 18.0769 -83.8083 125° Southeast  Level FlightAware Approximate
12:05AM 17.9994 -83.6912 125° Southeast  Level FlightAware Approximate
12:06AM 17.9149 -83.5804 135° Southeast  Level FlightAware Approximate
12:07AM 17.8181 -83.4805 135° Southeast  Level FlightAware Approximate
12:08AM 17.7213 -83.3807 136° Southeast  Level FlightAware Approximate
12:09AM 17.6244 -83.2810 136° Southeast  Level FlightAware Approximate
12:10AM 17.5275 -83.1815 136° Southeast  Level FlightAware Approximate
12:11AM 17.4305 -83.0820 136° Southeast  Level FlightAware Approximate
12:12AM 17.3317 -82.9846 139° Southeast  Level FlightAware Approximate
12:13AM 17.2295 -82.8912 139° Southeast  Level FlightAware Approximate
12:14AM 17.1272 -82.7979 139° Southeast  Level FlightAware Approximate
12:15AM 17.0249 -82.7047 139° Southeast  Level FlightAware Approximate
12:16AM 16.9226 -82.6116 139° Southeast  Level FlightAware Approximate
12:17AM 16.8202 -82.5185 139° Southeast  Level FlightAware Approximate
12:18AM 16.7178 -82.4256 139° Southeast  Level FlightAware Approximate
12:19AM 16.6153 -82.3328 139° Southeast  Level FlightAware Approximate
12:20AM 16.5128 -82.2401 139° Southeast  Level FlightAware Approximate
12:21AM 16.4137 -82.1437 134° Southeast  Level FlightAware Approximate
12:22AM 16.3200 -82.0414 134° Southeast  Level FlightAware Approximate
12:23AM 16.2262 -81.9393 134° Southeast  Level FlightAware Approximate
12:24AM 16.1324 -81.8372 134° Southeast  Level FlightAware Approximate
12:25AM 16.0386 -81.7353 134° Southeast  Level FlightAware Approximate
12:26AM 15.9447 -81.6334 134° Southeast  Level FlightAware Approximate
12:27AM 15.8507 -81.5317 134° Southeast  Level FlightAware Approximate
12:28AM 15.7567 -81.4300 134° Southeast  Level FlightAware Approximate
12:29AM 15.6627 -81.3284 134° Southeast  Level FlightAware Approximate
12:30AM 15.5686 -81.2270 134° Southeast  Level FlightAware Approximate
12:31AM 15.4745 -81.1256 134° Southeast  Level FlightAware Approximate
12:32AM 15.3803 -81.0243 134° Southeast  Level FlightAware Approximate
12:33AM 15.2861 -80.9231 134° Southeast  Level FlightAware Approximate
12:34AM 15.1918 -80.8220 134° Southeast  Level FlightAware Approximate
12:35AM 15.0975 -80.7209 134° Southeast  Level FlightAware Approximate
12:36AM 15.0031 -80.6200 134° Southeast  Level FlightAware Approximate
12:37AM 14.8966 -80.5331 142° Southeast  Level FlightAware Approximate
12:38AM 14.7895 -80.4469 142° Southeast  Level FlightAware Approximate
12:39AM 14.6825 -80.3607 142° Southeast  Level FlightAware Approximate
12:40AM 14.5754 -80.2746 142° Southeast  Level FlightAware Approximate
12:41AM 14.4684 -80.1885 142° Southeast  Level FlightAware Approximate
12:42AM 14.3612 -80.1026 142° Southeast  Level FlightAware Approximate
12:43AM 14.2541 -80.0167 142° Southeast  Level FlightAware Approximate
12:44AM 14.1469 -79.9309 142° Southeast  Level FlightAware Approximate
12:45AM 14.0396 -79.8452 142° Southeast  Level FlightAware Approximate
12:46AM 13.9324 -79.7596 142° Southeast  Level FlightAware Approximate
12:47AM 13.8251 -79.6741 142° Southeast  Level FlightAware Approximate
12:48AM 13.7178 -79.5886 142° Southeast  Level FlightAware Approximate
12:49AM 13.6105 -79.5032 142° Southeast  Level FlightAware Approximate
12:50AM 13.5031 -79.4179 142° Southeast  Level FlightAware Approximate
12:51AM 13.3957 -79.3327 142° Southeast  Level FlightAware Approximate
12:52AM 13.2883 -79.2476 142° Southeast  Level FlightAware Approximate
12:53AM 13.1808 -79.1625 142° Southeast  Level FlightAware Approximate
12:54AM 13.0733 -79.0775 142° Southeast  Level FlightAware Approximate
12:55AM 12.9658 -78.9925 142° Southeast  Level FlightAware Approximate
12:56AM 12.8583 -78.9077 142° Southeast  Level FlightAware Approximate
12:57AM 12.7507 -78.8229 142° Southeast  Level FlightAware Approximate
12:58AM 12.6431 -78.7382 142° Southeast  Level FlightAware Approximate
12:59AM 12.5355 -78.6535 142° Southeast  Level FlightAware Approximate
01:00AM 12.4279 -78.5690 143° Southeast  Level FlightAware Approximate
01:01AM 12.3202 -78.4845 143° Southeast  Level FlightAware Approximate
01:02AM 12.2125 -78.4000 143° Southeast  Level FlightAware Approximate
01:03AM 12.1048 -78.3157 143° Southeast  Level FlightAware Approximate
01:04AM 11.9970 -78.2314 143° Southeast  Level FlightAware Approximate
01:05AM 11.8893 -78.1472 143° Southeast  Level FlightAware Approximate
01:06AM 11.7815 -78.0630 143° Southeast  Level FlightAware Approximate
01:07AM 11.6736 -77.9789 143° Southeast  Level FlightAware Approximate
01:08AM 11.5658 -77.8949 143° Southeast  Level FlightAware Approximate
01:09AM 11.4579 -77.8109 143° Southeast  Level FlightAware Approximate
01:10AM 11.3500 -77.7270 143° Southeast  Level FlightAware Approximate
01:10AM 10.9700 -77.4250 143° Southeast 475 547 33,000  Level FlightAware
01:11AM 11.2421 -77.6432 143° Southeast  Level FlightAware Approximate
01:11AM 10.9200 -77.3800 139° Southeast 478 550 33,000  Level FlightAware
01:11AM 10.8480 -77.3140 138° Southeast 485 558 33,000  Level FlightAware
01:12AM 10.7890 -77.2580 137° Southeast 485 558 33,000  Level FlightAware
01:13AM 10.7280 -77.2010 137° Southeast 484 557 33,000  Level FlightAware
01:13AM 10.6760 -77.1510 137° Southeast 484 557 33,000  Level FlightAware
01:14AM 10.6310 -77.1090 137° Southeast 484 557 33,000  Level FlightAware
01:14AM 10.5430 -77.0290 138° Southeast 477 549 33,000  Level FlightAware
01:15AM 10.4930 -76.9820 137° Southeast 477 549 33,000  Level FlightAware
01:16AM 10.4310 -76.9250 138° Southeast 470 541 33,000  Level FlightAware
01:16AM 10.3700 -76.8680 137° Southeast 469 540 33,000  Level FlightAware
01:17AM 10.3010 -76.8040 138° Southeast 477 549 33,000  Level FlightAware
01:17AM 10.2490 -76.7560 138° Southeast 477 549 33,000  Level FlightAware
01:18AM 10.1930 -76.7040 138° Southeast 477 549 33,000  Level FlightAware
01:19AM 10.1320 -76.6470 137° Southeast 477 549 33,000  Level FlightAware
01:19AM 10.0850 -76.6040 138° Southeast 477 549 33,000  Level FlightAware
01:20AM 10.0260 -76.5480 137° Southeast 476 548 33,000  Level FlightAware
01:21AM 9.9370 -76.4670 138° Southeast 477 549 33,000  Level FlightAware
01:21AM 9.8680 -76.4030 138° Southeast 476 548 33,000  Level FlightAware
01:22AM 9.8080 -76.3470 137° Southeast 469 540 33,000  Level FlightAware
01:23AM 9.7500 -76.2910 136° Southeast 469 540 33,000  Level FlightAware
01:23AM 9.6860 -76.2350 139° Southeast 476 548 33,000  Level FlightAware
01:24AM 9.6260 -76.1790 137° Southeast 478 550 33,000  Level FlightAware
01:24AM 9.5690 -76.1260 137° Southeast 481 554 33,000  Level FlightAware
01:25AM 9.5090 -76.0720 138° Southeast 481 554 33,000  Level FlightAware
01:26AM 9.4500 -76.0170 137° Southeast 483 556 33,000  Level FlightAware
01:26AM 9.3830 -75.9550 138° Southeast 479 551 33,000  Level FlightAware
01:27AM 9.3290 -75.9050 138° Southeast 480 552 33,000  Level FlightAware
01:27AM 9.2770 -75.8570 138° Southeast 480 552 33,000  Level FlightAware
01:28AM 9.2150 -75.8010 138° Southeast 480 552 33,000  Level FlightAware
01:28AM 9.1610 -75.7510 138° Southeast 478 550 33,000  Level FlightAware
01:29AM 9.1010 -75.6960 138° Southeast 476 548 33,000  Level FlightAware
01:30AM 9.0570 -75.6550 137° Southeast 476 548 33,000  Level FlightAware
01:30AM 8.9860 -75.5900 138° Southeast 478 550 33,000  Level FlightAware
01:31AM 8.9180 -75.5270 138° Southeast 479 551 33,000  Level FlightAware
01:32AM 8.8500 -75.4660 138° Southeast 480 552 33,000  Level FlightAware
01:32AM 8.7830 -75.4040 138° Southeast 481 554 33,000  Level FlightAware
01:33AM 8.7180 -75.3440 138° Southeast 479 551 33,000  Level FlightAware
01:34AM 8.6650 -75.2950 138° Southeast 478 550 33,000  Level FlightAware
01:34AM 8.5870 -75.2250 138° Southeast 476 548 33,000  Level FlightAware
01:35AM 8.5350 -75.1760 137° Southeast 476 548 33,000  Level FlightAware
01:35AM 8.4720 -75.1190 138° Southeast 476 548 33,000  Level FlightAware
01:36AM 8.4080 -75.0610 138° Southeast 474 545 33,000  Level FlightAware
01:37AM 8.3500 -75.0070 137° Southeast 474 545 33,000  Level FlightAware
01:37AM 8.3020 -74.9640 138° Southeast 474 545 33,000  Level FlightAware
01:38AM 8.2420 -74.9090 138° Southeast 473 544 33,000  Level FlightAware
01:39AM 8.1740 -74.8460 137° Southeast 472 543 33,000  Level FlightAware
01:39AM 8.1150 -74.7930 138° Southeast 472 543 33,000  Level FlightAware
01:40AM 8.0570 -74.7400 138° Southeast 473 544 33,000  Level FlightAware
01:40AM 8.0020 -74.6900 138° Southeast 471 542 33,000  Level FlightAware
01:41AM 7.9450 -74.6380 138° Southeast 470 541 33,000  Level FlightAware
01:41AM 7.8880 -74.5860 138° Southeast 471 542 33,000  Level FlightAware
01:42AM 7.8230 -74.5260 138° Southeast 471 542 33,000  Level FlightAware
01:43AM 7.7670 -74.4750 138° Southeast 469 540 33,000  Level FlightAware
01:43AM 7.7100 -74.4240 138° Southeast 472 543 33,000  Level FlightAware
01:44AM 7.6530 -74.3720 138° Southeast 478 550 33,000  Level FlightAware
01:44AM 7.5950 -74.3190 138° Southeast 479 551 33,000  Level FlightAware
01:45AM 7.5410 -74.2700 138° Southeast 479 551 33,000  Level FlightAware
01:46AM 7.4790 -74.2150 139° Southeast 481 554 33,000  Level FlightAware
01:46AM 7.4260 -74.1660 137° Southeast 479 551 33,000  Level FlightAware
01:47AM 7.3760 -74.1200 138° Southeast 479 551 33,000  Level FlightAware
01:48AM 7.3250 -74.0740 138° Southeast 479 551 33,000  Level FlightAware
01:48AM 7.2730 -74.0270 138° Southeast 479 551 33,000  Level FlightAware
01:49AM 7.2220 -73.9800 138° Southeast 479 551 33,000  Level FlightAware
01:49AM 7.1740 -73.9370 138° Southeast 479 551 33,000  Level FlightAware
01:50AM 7.1220 -73.8900 138° Southeast 479 551 33,000  Level FlightAware
01:51AM 6.9900 -73.7850 142° Southeast 475 547 33,000  Level FlightAware
01:52AM 6.8910 -73.7260 149° Southeast 475 547 33,000  Level FlightAware
01:52AM 6.8070 -73.6850 154° Southeast 476 548 33,000  Level FlightAware
01:53AM 6.7440 -73.6520 153° Southeast 476 548 33,000  Level FlightAware
01:53AM 6.6750 -73.6140 151° Southeast 477 549 33,000  Level FlightAware
01:54AM 6.6050 -73.5760 152° Southeast 476 548 33,000  Level FlightAware
01:54AM 6.5370 -73.5400 152° Southeast 477 549 33,000  Level FlightAware
01:55AM 6.4690 -73.5020 151° Southeast 476 548 33,000  Level FlightAware
01:56AM 6.3990 -73.4650 152° Southeast 476 548 33,000  Level FlightAware
01:56AM 6.3330 -73.4290 152° Southeast 476 548 33,000  Level FlightAware
01:57AM 6.2620 -73.3910 152° Southeast 476 548 33,000  Level FlightAware
01:57AM 6.1940 -73.3540 152° Southeast 477 549 33,000  Level FlightAware
01:58AM 6.1090 -73.3080 152° Southeast 478 550 33,000  Level FlightAware
01:59AM 6.0480 -73.2740 151° Southeast 478 550 33,000  Level FlightAware
01:59AM 5.9910 -73.2420 151° Southeast 478 550 33,000  Level FlightAware
02:00AM 5.9310 -73.2090 151° Southeast 478 550 33,000  Level FlightAware
02:01AM 5.8710 -73.1750 151° Southeast 478 550 33,000  Level FlightAware
02:01AM 5.8100 -73.1410 151° Southeast 478 550 33,000  Level FlightAware
02:02AM 5.7490 -73.1070 151° Southeast 478 550 33,000  Level FlightAware
02:02AM 5.6850 -73.0710 151° Southeast 478 550 33,000  Level FlightAware
02:03AM 5.5190 -73.0080 159° South 479 551 33,000  Level FlightAware
02:04AM 5.4490 -72.9720 153° Southeast 480 552 33,000  Level FlightAware
02:04AM 5.3770 -72.9330 152° Southeast 480 552 33,000  Level FlightAware
02:05AM 5.3150 -72.8990 151° Southeast 480 552 33,000  Level FlightAware
02:05AM 5.2440 -72.8620 153° Southeast 480 552 33,000  Level FlightAware
02:06AM 5.1740 -72.8240 152° Southeast 480 552 33,000  Level FlightAware
02:07AM 5.0920 -72.7790 151° Southeast 480 552 33,000  Level FlightAware
02:07AM 5.0290 -72.7440 151° Southeast 480 552 33,000  Level FlightAware
02:08AM 4.9660 -72.7090 151° Southeast 480 552 33,000  Level FlightAware
02:09AM 4.8990 -72.6710 151° Southeast 480 552 33,000  Level FlightAware
02:09AM 4.8380 -72.6370 151° Southeast 480 552 33,000  Level FlightAware
02:10AM 4.7800 -72.6050 151° Southeast 480 552 33,000  Level FlightAware
02:10AM 4.7200 -72.5720 151° Southeast 480 552 33,000  Level FlightAware
02:11AM 4.6590 -72.5380 151° Southeast 480 552 33,000  Level FlightAware
02:12AM 4.6010 -72.5060 151° Southeast 480 552 33,000  Level FlightAware
02:12AM 4.5400 -72.4720 151° Southeast 480 552 33,000  Level FlightAware
02:13AM 4.4780 -72.4370 151° Southeast 480 552 33,000  Level FlightAware
02:14AM 4.4180 -72.4040 151° Southeast 480 552 33,000  Level FlightAware
02:14AM 4.3570 -72.3700 151° Southeast 480 552 33,000  Level FlightAware
02:15AM 4.2980 -72.3370 151° Southeast 480 552 33,000  Level FlightAware
02:15AM 4.2370 -72.3030 151° Southeast 480 552 33,000  Level FlightAware
02:16AM 4.1740 -72.2680 151° Southeast 480 552 33,000  Level FlightAware
02:19AM 3.8805 -72.0961 145° Southeast  Level FlightAware Approximate
02:20AM 3.7699 -72.0182 145° Southeast  Level FlightAware Approximate
02:21AM 3.6593 -71.9402 145° Southeast  Level FlightAware Approximate
02:22AM 3.5487 -71.8624 145° Southeast  Level FlightAware Approximate
02:23AM 3.4381 -71.7845 145° Southeast  Level FlightAware Approximate
02:24AM 3.3275 -71.7066 145° Southeast  Level FlightAware Approximate
02:25AM 3.2169 -71.6288 145° Southeast  Level FlightAware Approximate
02:26AM 3.1063 -71.5510 145° Southeast  Level FlightAware Approximate
02:27AM 2.9957 -71.4732 145° Southeast  Level FlightAware Approximate
02:28AM 2.8851 -71.3954 145° Southeast  Level FlightAware Approximate
02:29AM 2.7745 -71.3176 145° Southeast  Level FlightAware Approximate
02:30AM 2.6638 -71.2399 145° Southeast  Level FlightAware Approximate
02:31AM 2.5532 -71.1621 145° Southeast  Level FlightAware Approximate
02:32AM 2.4427 -71.0843 145° Southeast  Level FlightAware Approximate
02:33AM 2.3321 -71.0064 145° Southeast  Level FlightAware Approximate
02:34AM 2.2215 -70.9286 145° Southeast  Level FlightAware Approximate
02:35AM 2.1110 -70.8507 145° Southeast  Level FlightAware Approximate
02:36AM 2.0004 -70.7729 145° Southeast  Level FlightAware Approximate
02:37AM 1.8899 -70.6951 145° Southeast  Level FlightAware Approximate
02:38AM 1.7793 -70.6173 145° Southeast  Level FlightAware Approximate
02:39AM 1.6687 -70.5395 145° Southeast  Level FlightAware Approximate
02:40AM 1.5581 -70.4617 145° Southeast  Level FlightAware Approximate
02:41AM 1.4476 -70.3840 145° Southeast  Level FlightAware Approximate
02:42AM 1.3372 -70.3063 145° Southeast  Level FlightAware Approximate
02:43AM 1.2274 -70.2280 138° Southeast  Level FlightAware Approximate
02:44AM 1.1266 -70.1383 138° Southeast  Level FlightAware Approximate
02:45AM 1.0258 -70.0486 138° Southeast  Level FlightAware Approximate
02:46AM 0.9250 -69.9589 138° Southeast  Level FlightAware Approximate
02:47AM 0.8242 -69.8691 138° Southeast  Level FlightAware Approximate
02:48AM 0.7234 -69.7794 138° Southeast  Level FlightAware Approximate
02:49AM 0.6226 -69.6898 138° Southeast  Level FlightAware Approximate
02:50AM 0.5218 -69.6001 138° Southeast  Level FlightAware Approximate
02:51AM 0.4209 -69.5104 138° Southeast  Level FlightAware Approximate
02:52AM 0.3201 -69.4207 138° Southeast  Level FlightAware Approximate
02:53AM 0.2193 -69.3310 138° Southeast  Level FlightAware Approximate
02:54AM 0.1185 -69.2413 138° Southeast  Level FlightAware Approximate
02:55AM 0.0177 -69.1516 138° Southeast  Level FlightAware Approximate
02:56AM -0.0831 -69.0619 138° Southeast  Level FlightAware Approximate
02:57AM -0.1839 -68.9723 138° Southeast  Level FlightAware Approximate
02:58AM -0.2847 -68.8826 138° Southeast  Level FlightAware Approximate
02:59AM -0.3855 -68.7929 138° Southeast  Level FlightAware Approximate
03:00AM -0.4863 -68.7032 138° Southeast  Level FlightAware Approximate
03:01AM -0.5871 -68.6135 138° Southeast  Level FlightAware Approximate
03:02AM -0.6880 -68.5238 138° Southeast  Level FlightAware Approximate
03:03AM -0.7888 -68.4341 138° Southeast  Level FlightAware Approximate
03:04AM -0.8896 -68.3444 138° Southeast  Level FlightAware Approximate
03:05AM -0.9904 -68.2547 138° Southeast  Level FlightAware Approximate
03:06AM -1.0912 -68.1650 138° Southeast  Level FlightAware Approximate
03:07AM -1.1919 -68.0753 138° Southeast  Level FlightAware Approximate
03:08AM -1.2927 -67.9855 138° Southeast  Level FlightAware Approximate
03:09AM -1.3935 -67.8958 138° Southeast  Level FlightAware Approximate
03:10AM -1.4943 -67.8061 138° Southeast  Level FlightAware Approximate
03:11AM -1.5951 -67.7163 138° Southeast  Level FlightAware Approximate
03:12AM -1.6959 -67.6265 138° Southeast  Level FlightAware Approximate
03:13AM -1.7966 -67.5368 138° Southeast  Level FlightAware Approximate
03:14AM -1.8974 -67.4470 138° Southeast  Level FlightAware Approximate
03:15AM -1.9982 -67.3572 138° Southeast  Level FlightAware Approximate
03:16AM -2.0989 -67.2674 138° Southeast  Level FlightAware Approximate
03:17AM -2.1997 -67.1776 138° Southeast  Level FlightAware Approximate
03:18AM -2.3004 -67.0878 138° Southeast  Level FlightAware Approximate
03:19AM -2.4012 -66.9979 138° Southeast  Level FlightAware Approximate
03:20AM -2.5019 -66.9081 138° Southeast  Level FlightAware Approximate
03:21AM -2.6026 -66.8182 138° Southeast  Level FlightAware Approximate
03:22AM -2.7034 -66.7283 138° Southeast  Level FlightAware Approximate
03:23AM -2.8041 -66.6385 138° Southeast  Level FlightAware Approximate
03:24AM -2.9048 -66.5486 138° Southeast  Level FlightAware Approximate
03:25AM -3.0055 -66.4586 138° Southeast  Level FlightAware Approximate
03:26AM -3.1062 -66.3687 138° Southeast  Level FlightAware Approximate
03:27AM -3.2069 -66.2787 138° Southeast  Level FlightAware Approximate
03:28AM -3.3076 -66.1888 138° Southeast  Level FlightAware Approximate
03:29AM -3.4082 -66.0988 138° Southeast  Level FlightAware Approximate
03:30AM -3.5089 -66.0088 138° Southeast  Level FlightAware Approximate
03:31AM -3.6095 -65.9187 138° Southeast  Level FlightAware Approximate
03:32AM -3.7102 -65.8287 138° Southeast  Level FlightAware Approximate
03:33AM -3.8108 -65.7386 138° Southeast  Level FlightAware Approximate
03:34AM -3.9115 -65.6485 138° Southeast  Level FlightAware Approximate
03:35AM -4.0121 -65.5584 138° Southeast  Level FlightAware Approximate
03:36AM -4.1127 -65.4683 138° Southeast  Level FlightAware Approximate
03:37AM -4.2133 -65.3781 138° Southeast  Level FlightAware Approximate
03:38AM -4.3139 -65.2879 138° Southeast  Level FlightAware Approximate
03:39AM -4.4145 -65.1977 138° Southeast  Level FlightAware Approximate
03:40AM -4.5150 -65.1075 138° Southeast  Level FlightAware Approximate
03:41AM -4.6156 -65.0172 138° Southeast  Level FlightAware Approximate
03:42AM -4.7161 -64.9269 138° Southeast  Level FlightAware Approximate
03:43AM -4.8167 -64.8366 138° Southeast  Level FlightAware Approximate
03:44AM -4.9172 -64.7463 138° Southeast  Level FlightAware Approximate
03:45AM -5.0177 -64.6560 138° Southeast  Level FlightAware Approximate
03:46AM -5.1182 -64.5656 138° Southeast  Level FlightAware Approximate
03:47AM -5.2187 -64.4751 138° Southeast  Level FlightAware Approximate
03:48AM -5.3191 -64.3847 138° Southeast  Level FlightAware Approximate
03:49AM -5.4196 -64.2942 138° Southeast  Level FlightAware Approximate
03:50AM -5.5201 -64.2037 138° Southeast  Level FlightAware Approximate
03:51AM -5.6205 -64.1132 138° Southeast  Level FlightAware Approximate
03:52AM -5.7209 -64.0226 138° Southeast  Level FlightAware Approximate
03:53AM -5.8213 -63.9320 138° Southeast  Level FlightAware Approximate
03:54AM -5.9217 -63.8414 138° Southeast  Level FlightAware Approximate
03:55AM -6.0221 -63.7507 138° Southeast  Level FlightAware Approximate
03:56AM -6.1224 -63.6600 138° Southeast  Level FlightAware Approximate
03:57AM -6.2228 -63.5693 138° Southeast  Level FlightAware Approximate
03:58AM -6.3231 -63.4785 138° Southeast  Level FlightAware Approximate
03:59AM -6.4234 -63.3877 138° Southeast  Level FlightAware Approximate
04:00AM -6.5237 -63.2968 138° Southeast  Level FlightAware Approximate
04:01AM -6.6240 -63.2060 138° Southeast  Level FlightAware Approximate
04:02AM -6.7242 -63.1151 138° Southeast  Level FlightAware Approximate
04:03AM -6.8245 -63.0241 138° Southeast  Level FlightAware Approximate
04:04AM -6.9247 -62.9331 138° Southeast  Level FlightAware Approximate
04:05AM -7.0249 -62.8421 138° Southeast  Level FlightAware Approximate
04:06AM -7.1251 -62.7510 138° Southeast  Level FlightAware Approximate
04:07AM -7.2253 -62.6599 138° Southeast  Level FlightAware Approximate
04:08AM -7.3255 -62.5688 138° Southeast  Level FlightAware Approximate
04:09AM -7.4256 -62.4776 138° Southeast  Level FlightAware Approximate
04:10AM -7.5257 -62.3863 138° Southeast  Level FlightAware Approximate
04:11AM -7.6258 -62.2951 138° Southeast  Level FlightAware Approximate
04:12AM -7.7259 -62.2038 138° Southeast  Level FlightAware Approximate
04:13AM -7.8260 -62.1124 138° Southeast  Level FlightAware Approximate
04:14AM -7.9260 -62.0210 138° Southeast  Level FlightAware Approximate
04:15AM -8.0260 -61.9296 138° Southeast  Level FlightAware Approximate
04:16AM -8.1260 -61.8381 138° Southeast  Level FlightAware Approximate
04:17AM -8.2262 -61.7464 138° Southeast  Level FlightAware Approximate
04:18AM -8.3263 -61.6546 138° Southeast  Level FlightAware Approximate
04:19AM -8.4264 -61.5628 138° Southeast  Level FlightAware Approximate
04:20AM -8.5265 -61.4710 138° Southeast  Level FlightAware Approximate
04:21AM -8.6266 -61.3791 138° Southeast  Level FlightAware Approximate
04:22AM -8.7267 -61.2872 138° Southeast  Level FlightAware Approximate
04:23AM -8.8267 -61.1952 138° Southeast  Level FlightAware Approximate
04:24AM -8.9267 -61.1031 138° Southeast  Level FlightAware Approximate
04:25AM -9.0267 -61.0110 138° Southeast  Level FlightAware Approximate
04:26AM -9.1267 -60.9189 138° Southeast  Level FlightAware Approximate
04:27AM -9.2266 -60.8267 138° Southeast  Level FlightAware Approximate
04:28AM -9.3265 -60.7345 138° Southeast  Level FlightAware Approximate
04:29AM -9.4264 -60.6422 138° Southeast  Level FlightAware Approximate
04:30AM -9.5263 -60.5498 138° Southeast  Level FlightAware Approximate
04:31AM -9.6262 -60.4574 138° Southeast  Level FlightAware Approximate
04:32AM -9.7260 -60.3650 138° Southeast  Level FlightAware Approximate
04:33AM -9.8258 -60.2724 138° Southeast  Level FlightAware Approximate
04:34AM -9.9256 -60.1799 138° Southeast  Level FlightAware Approximate
04:35AM -10.0253 -60.0872 138° Southeast  Level FlightAware Approximate
04:36AM -10.1250 -59.9946 138° Southeast  Level FlightAware Approximate
04:37AM -10.2247 -59.9018 138° Southeast  Level FlightAware Approximate
04:38AM -10.3244 -59.8090 138° Southeast  Level FlightAware Approximate
04:39AM -10.4240 -59.7162 137° Southeast  Level FlightAware Approximate
04:40AM -10.5237 -59.6232 137° Southeast  Level FlightAware Approximate
04:41AM -10.6233 -59.5303 137° Southeast  Level FlightAware Approximate
04:42AM -10.7228 -59.4372 137° Southeast  Level FlightAware Approximate
04:43AM -10.8223 -59.3441 137° Southeast  Level FlightAware Approximate
04:44AM -10.9219 -59.2510 137° Southeast  Level FlightAware Approximate
04:45AM -11.0213 -59.1577 137° Southeast  Level FlightAware Approximate
04:46AM -11.1208 -59.0645 137° Southeast  Level FlightAware Approximate
04:47AM -11.2202 -58.9711 137° Southeast  Level FlightAware Approximate
04:48AM -11.3196 -58.8777 137° Southeast  Level FlightAware Approximate
04:49AM -11.4190 -58.7842 137° Southeast  Level FlightAware Approximate
04:50AM -11.5183 -58.6907 137° Southeast  Level FlightAware Approximate
04:51AM -11.6176 -58.5971 137° Southeast  Level FlightAware Approximate
04:52AM -11.7169 -58.5034 137° Southeast  Level FlightAware Approximate
04:53AM -11.8161 -58.4096 137° Southeast  Level FlightAware Approximate
04:54AM -11.9153 -58.3158 137° Southeast  Level FlightAware Approximate
04:55AM -12.0145 -58.2220 137° Southeast  Level FlightAware Approximate
04:56AM -12.1136 -58.1280 137° Southeast  Level FlightAware Approximate
04:57AM -12.2128 -58.0340 137° Southeast  Level FlightAware Approximate
04:58AM -12.3118 -57.9399 137° Southeast  Level FlightAware Approximate
04:59AM -12.4109 -57.8457 137° Southeast  Level FlightAware Approximate
05:00AM -12.5099 -57.7515 137° Southeast  Level FlightAware Approximate
05:01AM -12.6089 -57.6572 137° Southeast  Level FlightAware Approximate
05:02AM -12.7079 -57.5628 137° Southeast  Level FlightAware Approximate
05:03AM -12.8068 -57.4684 137° Southeast  Level FlightAware Approximate
05:04AM -12.9057 -57.3738 137° Southeast  Level FlightAware Approximate
05:05AM -13.0045 -57.2792 137° Southeast  Level FlightAware Approximate
05:06AM -13.1034 -57.1846 137° Southeast  Level FlightAware Approximate
05:07AM -13.2022 -57.0898 137° Southeast  Level FlightAware Approximate
05:08AM -13.3009 -56.9950 137° Southeast  Level FlightAware Approximate
05:09AM -13.3996 -56.9001 137° Southeast  Level FlightAware Approximate
05:10AM -13.4983 -56.8051 137° Southeast  Level FlightAware Approximate
05:11AM -13.5969 -56.7100 137° Southeast  Level FlightAware Approximate
05:12AM -13.6956 -56.6149 137° Southeast  Level FlightAware Approximate
05:13AM -13.7941 -56.5197 137° Southeast  Level FlightAware Approximate
05:14AM -13.8927 -56.4244 137° Southeast  Level FlightAware Approximate
05:15AM -13.9912 -56.3290 137° Southeast  Level FlightAware Approximate
05:16AM -14.0896 -56.2335 137° Southeast  Level FlightAware Approximate
05:17AM -14.1881 -56.1380 137° Southeast  Level FlightAware Approximate
05:18AM -14.2864 -56.0423 137° Southeast  Level FlightAware Approximate
05:19AM -14.3848 -55.9466 137° Southeast  Level FlightAware Approximate
05:20AM -14.4831 -55.8508 137° Southeast  Level FlightAware Approximate
05:21AM -14.5814 -55.7550 137° Southeast  Level FlightAware Approximate
05:22AM -14.6796 -55.6590 137° Southeast  Level FlightAware Approximate
05:23AM -14.7778 -55.5629 137° Southeast  Level FlightAware Approximate
05:24AM -14.8759 -55.4668 137° Southeast  Level FlightAware Approximate
05:25AM -14.9740 -55.3705 137° Southeast  Level FlightAware Approximate
05:26AM -15.0721 -55.2742 137° Southeast  Level FlightAware Approximate
05:27AM -15.1701 -55.1778 137° Southeast  Level FlightAware Approximate
05:28AM -15.2681 -55.0813 136° Southeast  Level FlightAware Approximate
05:29AM -15.3661 -54.9847 136° Southeast  Level FlightAware Approximate
05:30AM -15.4640 -54.8881 136° Southeast  Level FlightAware Approximate
05:31AM -15.5619 -54.7913 136° Southeast  Level FlightAware Approximate
05:32AM -15.6597 -54.6944 136° Southeast  Level FlightAware Approximate
05:33AM -15.7575 -54.5975 136° Southeast  Level FlightAware Approximate
05:34AM -15.8552 -54.5004 136° Southeast  Level FlightAware Approximate
05:35AM -15.9529 -54.4033 136° Southeast  Level FlightAware Approximate
05:36AM -16.0506 -54.3060 136° Southeast  Level FlightAware Approximate
05:37AM -16.1482 -54.2087 136° Southeast  Level FlightAware Approximate
05:38AM -16.2457 -54.1113 136° Southeast  Level FlightAware Approximate
05:39AM -16.3432 -54.0138 136° Southeast  Level FlightAware Approximate
05:40AM -16.4407 -53.9161 136° Southeast  Level FlightAware Approximate
05:41AM -16.5381 -53.8184 136° Southeast  Level FlightAware Approximate
05:42AM -16.6355 -53.7206 136° Southeast  Level FlightAware Approximate
05:43AM -16.7329 -53.6227 136° Southeast  Level FlightAware Approximate
05:44AM -16.8302 -53.5247 136° Southeast  Level FlightAware Approximate
05:45AM -16.9274 -53.4265 136° Southeast  Level FlightAware Approximate
05:46AM -17.0246 -53.3283 136° Southeast  Level FlightAware Approximate
05:47AM -17.1217 -53.2300 136° Southeast  Level FlightAware Approximate
05:48AM -17.2188 -53.1316 136° Southeast  Level FlightAware Approximate
05:49AM -17.3159 -53.0331 136° Southeast  Level FlightAware Approximate
05:50AM -17.4129 -52.9344 136° Southeast  Level FlightAware Approximate
05:51AM -17.5099 -52.8357 136° Southeast  Level FlightAware Approximate
05:52AM -17.6068 -52.7368 136° Southeast  Level FlightAware Approximate
05:53AM -17.7036 -52.6379 136° Southeast  Level FlightAware Approximate
05:54AM -17.8004 -52.5388 136° Southeast  Level FlightAware Approximate
05:55AM -17.8972 -52.4397 136° Southeast  Level FlightAware Approximate
05:56AM -17.9939 -52.3404 136° Southeast  Level FlightAware Approximate
05:56AM -19.0180 -50.6770 136° Southeast 529 609 35,000  Level FlightAware
05:57AM -18.0906 -52.2410 136° Southeast  Level FlightAware Approximate
05:57AM -19.0810 -50.6070 134° Southeast 529 609 35,000  Level FlightAware
05:57AM -19.1370 -50.5470 135° Southeast 530 610 35,000  Level FlightAware
05:58AM -19.1950 -50.4830 134° Southeast 530 610 35,000  Level FlightAware
05:58AM -19.2580 -50.4140 134° Southeast 531 611 35,000  Level FlightAware
05:59AM -19.3240 -50.3420 134° Southeast 531 611 35,000  Level FlightAware
06:00AM -19.3770 -50.2830 134° Southeast 531 611 35,000  Level FlightAware
06:00AM -19.4420 -50.2120 134° Southeast 530 610 35,000  Level FlightAware
06:01AM -19.4950 -50.1540 134° Southeast 531 611 35,000  Level FlightAware
06:01AM -19.5500 -50.0930 134° Southeast 531 611 35,000  Level FlightAware
06:02AM -19.6160 -50.0200 134° Southeast 531 611 35,000  Level FlightAware
06:03AM -19.6750 -49.9560 134° Southeast 530 610 35,000  Level FlightAware
06:03AM -19.7350 -49.8910 134° Southeast 530 610 35,000  Level FlightAware
06:04AM -19.7960 -49.8230 134° Southeast 528 608 35,000  Level FlightAware
06:04AM -19.8530 -49.7610 134° Southeast 528 608 35,000  Level FlightAware
06:05AM -19.9180 -49.6910 135° Southeast 529 609 35,000  Level FlightAware
06:05AM -19.9750 -49.6270 133° Southeast 529 609 35,000  Level FlightAware
06:06AM -20.0330 -49.5640 134° Southeast 529 609 35,000  Level FlightAware
06:07AM -20.0890 -49.4920 130° Southeast 532 612 35,000  Level FlightAware
06:07AM -20.1460 -49.4150 128° Southeast 532 612 35,000  Level FlightAware
06:08AM -20.1930 -49.3590 132° Southeast 530 610 35,000  Level FlightAware
06:08AM -20.2620 -49.2840 134° Southeast 529 609 35,000  Level FlightAware
06:09AM -20.3200 -49.2210 134° Southeast 529 609 35,000  Level FlightAware
06:10AM -20.3830 -49.1530 135° Southeast 528 608 35,000  Level FlightAware
06:10AM -20.4390 -49.0910 134° Southeast 526 605 35,000  Level FlightAware
06:11AM -20.4840 -49.0410 134° Southeast 526 605 35,000  Level FlightAware
06:11AM -20.5650 -48.9520 134° Southeast 524 603 35,000  Level FlightAware
06:12AM -20.6320 -48.8910 140° Southeast 524 603 35,000  Level FlightAware
06:13AM -20.6970 -48.8320 140° Southeast 524 603 35,000  Level FlightAware
06:13AM -20.7700 -48.7660 140° Southeast 525 604 35,000  Level FlightAware
06:14AM -20.8260 -48.7160 140° Southeast 527 606 35,000  Level FlightAware
06:14AM -20.8970 -48.6520 140° Southeast 526 605 35,000  Level FlightAware
06:15AM -20.9640 -48.5900 139° Southeast 527 606 35,000  Level FlightAware
06:15AM -21.0260 -48.5330 139° Southeast 528 608 35,000  Level FlightAware
06:16AM -21.0900 -48.4740 139° Southeast 528 608 35,000  Level FlightAware
06:17AM -21.1580 -48.4130 140° Southeast 528 608 35,000  Level FlightAware
06:17AM -21.2220 -48.3530 139° Southeast 528 608 35,000  Level FlightAware
06:18AM -21.2840 -48.2970 140° Southeast 528 608 35,000  Level FlightAware
06:18AM -21.3510 -48.2350 139° Southeast 527 606 35,000  Level FlightAware
06:19AM -21.4140 -48.1780 140° Southeast 528 608 35,000  Level FlightAware
06:20AM -21.4820 -48.1150 139° Southeast 527 606 35,000  Level FlightAware
06:20AM -21.5400 -48.0620 140° Southeast 527 606 35,000  Level FlightAware
06:21AM -21.6110 -47.9970 140° Southeast 526 605 35,000  Level FlightAware
06:21AM -21.6730 -47.9390 139° Southeast 527 606 35,000 -360 Level FlightAware
06:22AM -21.7390 -47.8780 139° Southeast 512 589 34,600 -1,320 Descending FlightAware
06:22AM -21.7990 -47.8220 139° Southeast 502 578 33,500 -1,800 Descending FlightAware
06:23AM -21.8620 -47.7650 140° Southeast 491 565 32,500 -1,620 Descending FlightAware
06:24AM -21.9170 -47.7130 139° Southeast 480 552 31,600 -1,740 Descending FlightAware
06:24AM -21.9810 -47.6540 139° Southeast 465 535 30,500 -1,680 Descending FlightAware
06:25AM -22.0320 -47.6070 139° Southeast 454 522 29,700 -1,620 Descending FlightAware
06:25AM -22.0900 -47.5530 139° Southeast 443 510 28,700 -1,500 Descending FlightAware
06:26AM -22.1440 -47.5030 139° Southeast 430 495 27,900 -1,440 Descending FlightAware
06:27AM -22.1900 -47.4600 139° Southeast 421 484 27,100 -1,500 Descending FlightAware
06:27AM -22.2450 -47.4080 139° Southeast 411 473 26,200 -1,500 Descending FlightAware
06:28AM -22.2970 -47.3590 139° Southeast 400 460 25,300 -1,500 Descending FlightAware
06:28AM -22.3450 -47.3150 140° Southeast 392 451 24,500 -1,560 Descending FlightAware
06:29AM -22.3960 -47.2670 139° Southeast 384 442 23,500 -1,560 Descending FlightAware
06:29AM -22.4390 -47.2270 139° Southeast 378 435 22,700 -1,500 Descending FlightAware
06:30AM -22.4860 -47.1830 139° Southeast 373 429 21,800 -1,500 Descending FlightAware
06:31AM -22.5320 -47.1400 139° Southeast 368 423 20,900 -1,560 Descending FlightAware
06:31AM -22.5770 -47.1010 141° Southeast 360 414 20,000 -1,620 Descending FlightAware
06:32AM -22.6290 -47.0760 156° South 353 406 19,100 -1,500 Descending FlightAware
06:32AM -22.6870 -47.0510 158° South 349 402 18,200 -1,440 Descending FlightAware
06:33AM -22.7280 -47.0340 159° South 346 398 17,500 -1,620 Descending FlightAware
06:34AM -22.7850 -47.0100 159° South 343 395 16,500 -1,560 Descending FlightAware
06:34AM -22.8420 -46.9870 160° South 342 394 15,600 -1,620 Descending FlightAware
06:35AM -22.8900 -46.9660 158° South 344 396 14,600 -2,100 Descending FlightAware
06:35AM -22.9480 -46.9420 159° South 357 411 13,100 -2,400 Descending FlightAware
06:36AM -22.9980 -46.9210 159° South 352 405 11,800 -2,340 Descending FlightAware
06:36AM -23.0520 -46.8980 159° South 328 377 10,500 -1,680 Descending FlightAware
06:37AM -23.0900 -46.8820 159° South 296 341 10,000 -1,200 Descending FlightAware
06:37AM -23.1120 -46.8730 159° South 289 333 9,600 -1,680 Descending FlightAware
06:38AM -23.1360 -46.8630 159° South 287 330 9,000 -1,440 Descending FlightAware
06:38AM -23.1690 -46.8490 159° South 285 328 8,500 -960 Descending FlightAware
06:38AM -23.1930 -46.8390 159° South 281 323 8,300 -480 Descending FlightAware
06:39AM -23.2180 -46.8280 158° South 281 323 8,200 -480 Descending FlightAware
06:39AM -23.2410 -46.8180 158° South 279 321 8,000 -600 Descending FlightAware
06:39AM -23.2710 -46.8060 160° South 273 314 7,800 -600 Descending FlightAware
06:40AM -23.2900 -46.7970 156° South 264 304 7,600 -600 Descending FlightAware
06:40AM -23.3150 -46.7870 160° South 251 289 7,400 -480 Descending FlightAware
06:40AM -23.3360 -46.7780 159° South 237 273 7,300 -420 Descending FlightAware
06:41AM -23.3480 -46.7730 159° South 229 264 7,200 -480 Descending FlightAware
06:41AM -23.3730 -46.7610 156° South 218 251 7,000 -720 Descending FlightAware
06:41AM -23.3870 -46.7490 142° Southeast 216 249 6,700 -900 Descending FlightAware
06:42AM -23.4030 -46.7340 139° Southeast 210 242 6,400 -1,020 Descending FlightAware
06:42AM -23.4190 -46.7190 139° Southeast 210 242 6,000 -1,320 Descending FlightAware
06:42AM -23.4350 -46.7040 139° Southeast 211 243 5,500 -1,140 Descending FlightAware
06:43AM -23.4490 -46.6880 134° Southeast 205 236 5,200 -780 Descending FlightAware
06:43AM -23.4570 -46.6720 119° Southeast 195 224 5,000 -720 Descending FlightAware
06:43AM -23.4630 -46.6570 114° Southeast 187 215 4,800 -660 Descending FlightAware
06:44AM -23.4710 -46.6390 116° Southeast 181 208 4,600 -540 Descending FlightAware
06:44AM -23.4740 -46.6290 108° East 181 208 4,500 -780 Descending FlightAware
06:44AM -23.4740 -46.6250 90° East 180 207 4,400 -420 Descending FlightAware
06:44AM -23.4700 -46.6020 79° East 178 205 4,300 -540 Descending FlightAware
06:45AM -23.4660 -46.5860 75° East 178 205 4,000 -1,020 Descending FlightAware
06:45AM -23.4600 -46.5660 72° East 169 194 3,600 -960 Descending FlightAware
06:45AM -23.4570 -46.5540 75° East 155 178 3,400 -900 Descending FlightAware
06:46AM -23.4530 -46.5400 73° East 152 175 3,100 -780 Descending FlightAware
06:46AM -23.4490 -46.5240 75° East 154 177 2,900 -600 Descending FlightAware
06:46AM -23.4480 -46.5200 75° East 155 178 2,800 -660 Descending FlightAware
06:47AM -23.4440 -46.5080 70° East 147 169 2,600 -540 Descending FlightAware
06:47AM -23.4370 -46.4780 76° East 148 170 2,300 -480 Descending FlightAware